Time;durP1;ratioP1;P1;durP2;ratioP2;P2;SDS_P1;SDS_P2;PMS_P1;PMS_P2;Temp;Humidity;BMP_temperature;BMP_pressure;BME280_temperature;BME280_humidity;BME280_pressure;Samples;Min_cycle;Max_cycle;Signal;HPM_P1;HPM_P2
2022/11/20 00:00:45;;;;;;;35.05;13.88;;;;;;;-0.10;100.00;101001.56;5023303;28;20036;-84
2022/11/20 00:03:11;;;;;;;38.90;14.75;;;;;;;-0.06;100.00;101003.25;5036829;28;20473;-83
2022/11/20 00:05:36;;;;;;;36.22;14.50;;;;;;;-0.14;100.00;100998.09;5009624;28;20037;-83
2022/11/20 00:08:02;;;;;;;37.97;14.90;;;;;;;-0.25;100.00;100990.38;5011375;28;20037;-82
2022/11/20 00:10:27;;;;;;;37.83;15.70;;;;;;;-0.13;100.00;100988.22;4993307;28;20038;-83
2022/11/20 00:12:53;;;;;;;43.35;16.25;;;;;;;-0.22;100.00;100955.28;4993155;28;20080;-83
2022/11/20 00:15:18;;;;;;;39.35;15.85;;;;;;;-0.22;100.00;100975.94;5025300;28;20452;-83
2022/11/20 00:17:43;;;;;;;39.58;15.32;;;;;;;-0.40;100.00;100983.66;5020280;28;20044;-83
2022/11/20 00:20:09;;;;;;;33.92;15.75;;;;;;;-0.40;100.00;100978.28;5025851;28;20024;-82
2022/11/20 00:22:35;;;;;;;39.97;15.23;;;;;;;-0.46;100.00;100973.13;5010382;28;20041;-83
2022/11/20 00:25:00;;;;;;;39.65;15.65;;;;;;;-0.55;100.00;100976.09;5008419;28;20095;-82
2022/11/20 00:27:26;;;;;;;35.97;15.70;;;;;;;-0.57;100.00;100970.75;5009523;28;20037;-83
2022/11/20 00:29:51;;;;;;;38.20;15.88;;;;;;;-0.63;100.00;100970.06;5042759;28;20482;-83
2022/11/20 00:32:17;;;;;;;41.85;16.85;;;;;;;-0.78;100.00;100955.31;5026451;28;20091;-82
2022/11/20 00:34:42;;;;;;;37.58;15.85;;;;;;;-0.83;100.00;100950.06;5025269;28;20033;-83
2022/11/20 00:37:07;;;;;;;34.67;15.52;;;;;;;-0.79;100.00;100969.66;5026123;28;20034;-83
2022/11/20 00:39:33;;;;;;;43.30;16.33;;;;;;;-0.81;100.00;100967.00;5011939;28;20042;-83
2022/11/20 00:41:58;;;;;;;43.70;17.25;;;;;;;-0.97;100.00;100944.22;4996542;28;20094;-82
2022/11/20 00:44:24;;;;;;;42.13;17.95;;;;;;;-0.91;100.00;100965.53;5028916;28;20082;-83
2022/11/20 00:46:49;;;;;;;44.10;16.63;;;;;;;-0.94;100.00;100968.31;5044943;28;20061;-83
2022/11/20 00:49:15;;;;;;;44.00;17.20;;;;;;;-0.97;100.00;100958.56;5012689;28;20063;-83
2022/11/20 00:51:40;;;;;;;46.25;17.80;;;;;;;-0.98;100.00;100956.78;4995947;28;20025;-83
2022/11/20 00:54:06;;;;;;;39.80;16.27;;;;;;;-1.08;100.00;100933.81;5011731;28;20017;-83
2022/11/20 00:56:31;;;;;;;39.45;16.63;;;;;;;-0.78;100.00;100971.44;5028453;28;20393;-83
2022/11/20 00:58:59;;;;;;;49.80;17.35;;;;;;;-0.81;100.00;100968.84;5028344;28;20053;-83
2022/11/20 01:01:26;;;;;;;39.42;17.52;;;;;;;-0.80;100.00;100965.22;5011913;28;20033;-83
2022/11/20 01:03:54;;;;;;;45.67;17.27;;;;;;;-1.16;100.00;100957.31;5011550;28;20044;-83
2022/11/20 01:06:26;;;;;;;41.60;18.77;;;;;;;-1.05;100.00;100963.28;5008504;28;20393;-83
2022/11/20 01:08:55;;;;;;;44.25;17.75;;;;;;;-0.87;100.00;100955.56;5028041;28;20026;-83
2022/11/20 01:11:26;;;;;;;41.95;17.25;;;;;;;-1.01;100.00;100964.94;5044087;28;20025;-82
2022/11/20 01:13:53;;;;;;;54.83;18.15;;;;;;;-1.18;100.00;100934.97;5028656;28;20092;-82
2022/11/20 01:16:22;;;;;;;42.00;18.35;;;;;;;-1.07;100.00;100957.03;5027953;28;20049;-82
2022/11/20 01:18:50;;;;;;;41.17;17.98;;;;;;;-1.22;100.00;100970.94;5027115;28;20060;-83
2022/11/20 01:21:28;;;;;;;49.08;18.02;;;;;;;-1.22;100.00;100970.94;5028101;28;20025;-83
2022/11/20 01:23:53;;;;;;;55.35;18.02;;;;;;;-1.04;100.00;100962.31;5026941;28;20037;-84
2022/11/20 01:26:22;;;;;;;41.72;17.83;;;;;;;-1.02;100.00;100963.16;5028142;28;20047;-83
2022/11/20 01:28:48;;;;;;;44.50;17.75;;;;;;;-1.07;100.00;100953.47;5043897;28;20029;-83
2022/11/20 01:31:18;;;;;;;48.90;18.20;;;;;;;-1.01;100.00;100962.25;5027104;28;20044;-84
2022/11/20 01:33:45;;;;;;;41.55;18.02;;;;;;;-1.18;100.00;100945.72;5010773;28;20025;-83
2022/11/20 01:36:12;;;;;;;47.35;18.17;;;;;;;-1.37;100.00;100946.25;5016699;28;20048;-83
2022/11/20 01:38:37;;;;;;;48.83;17.65;;;;;;;-1.37;100.00;100958.81;5009826;28;20510;-84
2022/11/20 01:41:04;;;;;;;41.40;18.10;;;;;;;-1.42;100.00;100963.44;5008419;28;20022;-83
2022/11/20 01:43:29;;;;;;;44.17;18.83;;;;;;;-1.19;100.00;100954.72;4993567;28;20137;-83
2022/11/20 01:46:13;;;;;;;47.65;19.42;;;;;;;-1.25;100.00;100949.53;5008540;28;20041;-83
2022/11/20 01:48:46;;;;;;;41.13;18.45;;;;;;;-1.43;100.00;100957.16;5037274;28;20052;-84
2022/11/20 01:51:47;;;;;;;49.65;18.85;;;;;;;-1.31;100.00;100955.97;5006461;28;20030;-83
2022/11/20 01:54:22;;;;;;;44.92;17.65;;;;;;;-1.50;100.00;100960.97;4998429;28;20386;-84
2022/11/20 01:56:50;;;;;;;44.13;17.27;;;;;;;-1.49;100.00;100947.50;5011614;28;20030;-84
2022/11/20 01:59:19;;;;;;;44.85;17.92;;;;;;;-1.37;100.00;100942.72;5028223;28;20044;-84
2022/11/20 02:01:45;;;;;;;44.88;17.73;;;;;;;-1.47;100.00;100952.81;5012026;28;20026;-84
2022/11/20 02:04:12;;;;;;;46.47;19.13;;;;;;;-1.45;100.00;100952.78;4995869;28;20040;-83
2022/11/20 02:06:45;;;;;;;45.22;19.05;;;;;;;-1.38;100.00;100954.34;5030447;28;20045;-83
2022/11/20 02:09:11;;;;;;;49.55;19.55;;;;;;;-1.56;100.00;100945.91;5013069;28;20050;-83
2022/11/20 02:11:37;;;;;;;51.03;19.33;;;;;;;-1.61;100.00;100955.00;5043253;28;20029;-83
2022/11/20 02:14:03;;;;;;;51.83;18.23;;;;;;;-1.41;100.00;100955.34;5000439;28;20104;-84
2022/11/20 02:16:31;;;;;;;47.13;19.23;;;;;;;-1.51;100.00;100949.34;5015400;28;20033;-83
2022/11/20 02:19:02;;;;;;;51.22;19.17;;;;;;;-1.61;100.00;100950.50;5030931;28;20056;-83
2022/11/20 02:21:32;;;;;;;64.70;23.50;;;;;;;-1.50;100.00;100944.84;5031295;28;20025;-83
2022/11/20 02:24:13;;;;;;;62.25;23.83;;;;;;;-1.65;100.00;100935.41;5029515;28;20064;-83
2022/11/20 02:26:48;;;;;;;54.65;21.40;;;;;;;-1.76;100.00;100954.47;5013693;28;20037;-82
2022/11/20 02:29:17;;;;;;;52.25;20.95;;;;;;;-1.72;100.00;100945.44;5026830;28;20040;-83
2022/11/20 02:31:43;;;;;;;53.45;19.98;;;;;;;-1.62;100.00;100934.44;5025728;28;20041;-83
2022/11/20 02:34:09;;;;;;;52.33;18.15;;;;;;;-1.82;100.00;100949.31;5025308;28;20030;-82
2022/11/20 02:36:36;;;;;;;54.03;19.00;;;;;;;-1.83;100.00;100946.66;5009908;28;20048;-83
2022/11/20 02:39:03;;;;;;;56.97;22.05;;;;;;;-1.69;100.00;100945.38;4996476;28;20386;-83
2022/11/20 02:41:37;;;;;;;51.72;22.05;;;;;;;-1.82;100.00;100933.19;5012618;28;20028;-82
2022/11/20 02:44:03;;;;;;;53.30;20.73;;;;;;;-1.67;100.00;100942.63;5014241;28;20482;-82
2022/11/20 02:46:29;;;;;;;50.40;18.10;;;;;;;-1.72;100.00;100939.16;5025104;28;20056;-83
2022/11/20 02:48:55;;;;;;;52.72;18.05;;;;;;;-1.69;100.00;100939.09;5004887;28;20037;-83
2022/11/20 02:51:21;;;;;;;46.70;18.13;;;;;;;-1.70;100.00;100935.53;5010755;28;20043;-83
2022/11/20 02:53:46;;;;;;;43.30;18.60;;;;;;;-1.61;100.00;100934.41;5040740;28;20067;-83
2022/11/20 02:56:12;;;;;;;46.45;17.80;;;;;;;-1.62;100.00;100942.50;5030718;28;20022;-84
2022/11/20 02:58:38;;;;;;;49.42;20.90;;;;;;;-1.55;100.00;100949.47;5028593;28;20044;-84
2022/11/20 03:01:04;;;;;;;54.45;21.13;;;;;;;-1.39;100.00;100949.94;5027071;28;20053;-84
2022/11/20 03:03:29;;;;;;;50.33;20.40;;;;;;;-1.45;100.00;100942.03;5011857;28;20030;-83
2022/11/20 03:05:55;;;;;;;46.75;18.88;;;;;;;-1.36;100.00;100952.50;4978735;28;20095;-84
2022/11/20 03:08:20;;;;;;;48.97;18.73;;;;;;;-1.50;100.00;100940.34;5001027;28;20068;-84
2022/11/20 03:10:48;;;;;;;56.05;19.45;;;;;;;-1.31;100.00;100942.53;5028122;28;20030;-84
2022/11/20 03:13:14;;;;;;;42.50;16.83;;;;;;;-1.37;100.00;100937.34;5027327;28;20054;-83
2022/11/20 03:15:39;;;;;;;47.25;18.17;;;;;;;-1.56;100.00;100931.59;4979486;28;20029;-83
2022/11/20 03:18:05;;;;;;;50.88;19.02;;;;;;;-1.49;100.00;100934.06;5013005;28;20037;-84
2022/11/20 03:20:33;;;;;;;43.88;18.02;;;;;;;-1.35;100.00;100925.59;5011178;28;20043;-84
2022/11/20 03:22:58;;;;;;;53.08;19.40;;;;;;;-1.28;100.00;100928.13;5042987;28;20104;-83
2022/11/20 03:25:24;;;;;;;50.42;19.42;;;;;;;-1.39;100.00;100936.50;5026955;28;20124;-84
2022/11/20 03:27:49;;;;;;;50.67;19.70;;;;;;;-1.38;100.00;100914.94;5011590;28;20025;-83
2022/11/20 03:30:15;;;;;;;49.08;21.30;;;;;;;-1.38;100.00;100920.31;5004731;28;20041;-84
2022/11/20 03:32:44;;;;;;;55.85;20.75;;;;;;;-1.23;100.00;100926.19;5037575;28;20029;-84
2022/11/20 03:35:10;;;;;;;44.38;19.08;;;;;;;-1.23;100.00;100929.78;4995224;28;20044;-84
2022/11/20 03:37:35;;;;;;;46.92;18.88;;;;;;;-1.28;100.00;100926.31;5012449;28;20029;-84
2022/11/20 03:40:01;;;;;;;46.83;19.17;;;;;;;-1.23;100.00;100928.88;5025325;28;20094;-84
2022/11/20 03:45:10;;;;;;;52.70;19.63;;;;;;;-1.56;100.00;100899.38;5016510;28;20063;-83
2022/11/20 03:47:36;;;;;;;54.25;18.48;;;;;;;-1.38;100.00;100924.81;5013531;28;20105;-84
2022/11/20 03:50:02;;;;;;;43.90;18.25;;;;;;;-1.54;100.00;100901.09;5014205;28;20401;-83
2022/11/20 03:52:28;;;;;;;53.70;18.30;;;;;;;-1.58;100.00;100922.72;5012823;28;20515;-83
2022/11/20 03:54:53;;;;;;;50.97;19.77;;;;;;;-1.70;100.00;100914.06;5026166;28;20058;-84
2022/11/20 03:57:19;;;;;;;48.97;20.60;;;;;;;-1.81;100.00;100910.78;5011884;28;20443;-83
2022/11/20 03:59:44;;;;;;;47.83;18.63;;;;;;;-1.88;100.00;100923.50;4980461;28;20069;-83
2022/11/20 04:02:10;;;;;;;41.35;17.90;;;;;;;-1.94;100.00;100907.56;5028849;28;20049;-84
2022/11/20 04:04:35;;;;;;;50.22;20.05;;;;;;;-2.08;100.00;100897.19;5014037;28;20025;-84
2022/11/20 04:07:00;;;;;;;57.70;19.77;;;;;;;-1.95;100.00;100899.53;5012429;28;20048;-83
2022/11/20 04:09:26;;;;;;;50.72;19.70;;;;;;;-1.82;100.00;100890.28;5029041;28;20037;-83
2022/11/20 04:11:51;;;;;;;51.70;19.80;;;;;;;-2.12;100.00;100868.69;5029835;28;20040;-84
2022/11/20 04:14:17;;;;;;;55.92;20.50;;;;;;;-2.06;100.00;100889.97;5031738;28;20071;-83
2022/11/20 04:16:43;;;;;;;51.05;20.35;;;;;;;-2.00;100.00;100893.41;5032832;28;20404;-84
2022/11/20 04:19:14;;;;;;;59.03;20.92;;;;;;;-1.90;100.00;100877.03;4996446;28;20030;-84
2022/11/20 04:21:44;;;;;;;54.50;20.08;;;;;;;-1.99;100.00;100889.84;5048332;28;20033;-84
2022/11/20 04:24:12;;;;;;;58.42;20.55;;;;;;;-2.03;100.00;100886.34;5031950;28;20032;-84
2022/11/20 04:26:38;;;;;;;49.75;20.98;;;;;;;-1.96;100.00;100884.38;5032730;28;20037;-83
2022/11/20 04:29:04;;;;;;;57.42;20.50;;;;;;;-1.92;100.00;100889.63;5048800;28;20063;-83
2022/11/20 04:31:31;;;;;;;56.75;20.52;;;;;;;-1.91;100.00;100890.50;5015960;28;20036;-83
2022/11/20 04:34:06;;;;;;;56.60;21.60;;;;;;;-1.89;100.00;100889.53;5029718;28;20049;-83
2022/11/20 04:36:32;;;;;;;54.33;21.35;;;;;;;-1.96;100.00;100900.47;5046595;28;20072;-83
2022/11/20 04:39:00;;;;;;;56.53;21.10;;;;;;;-2.11;100.00;100897.28;5032696;28;20037;-84
2022/11/20 04:41:28;;;;;;;56.15;20.25;;;;;;;-2.15;100.00;100900.06;5031210;28;20037;-83
2022/11/20 04:43:58;;;;;;;60.20;20.70;;;;;;;-2.03;100.00;100894.41;5016250;28;20036;-84
2022/11/20 04:46:25;;;;;;;57.58;20.50;;;;;;;-2.11;100.00;100909.81;5014308;28;20037;-84
2022/11/20 04:48:51;;;;;;;54.83;21.95;;;;;;;-2.09;100.00;100903.47;5032430;28;20089;-83
2022/11/20 04:51:17;;;;;;;55.95;18.73;;;;;;;-2.04;100.00;100893.50;4999238;28;20029;-84
2022/11/20 04:53:42;;;;;;;50.88;20.98;;;;;;;-2.01;100.00;100894.38;5033201;28;20021;-83
2022/11/20 04:56:10;;;;;;;50.50;20.00;;;;;;;-2.03;100.00;100889.91;5000225;28;20072;-83
2022/11/20 04:58:36;;;;;;;51.58;20.13;;;;;;;-1.95;100.00;100880.75;5014047;28;20027;-84
2022/11/20 05:01:08;;;;;;;52.83;20.10;;;;;;;-2.01;100.00;100875.59;5045426;28;20021;-84
2022/11/20 05:03:34;;;;;;;51.53;19.70;;;;;;;-2.03;100.00;100887.22;5031954;28;20504;-84
2022/11/20 05:06:01;;;;;;;53.15;19.38;;;;;;;-1.96;100.00;100887.94;5048601;28;20037;-84
2022/11/20 05:08:29;;;;;;;51.50;21.10;;;;;;;-1.92;100.00;100886.03;5030824;28;20033;-84
2022/11/20 05:11:12;;;;;;;52.40;18.38;;;;;;;-2.01;100.00;100895.22;4995094;28;20152;-83
2022/11/20 05:13:38;;;;;;;53.75;20.33;;;;;;;-2.02;100.00;100888.09;5003070;28;20129;-84
2022/11/20 05:16:16;;;;;;;51.63;20.02;;;;;;;-2.17;100.00;100875.09;4973183;28;20034;-83
2022/11/20 05:18:42;;;;;;;51.40;19.73;;;;;;;-2.06;100.00;100881.94;4988283;28;20026;-83
2022/11/20 05:21:09;;;;;;;56.25;19.92;;;;;;;-2.06;100.00;100879.25;5006722;28;20110;-83
2022/11/20 05:23:34;;;;;;;44.80;19.42;;;;;;;-1.98;100.00;100872.78;5007912;28;20092;-83
2022/11/20 05:26:00;;;;;;;53.47;19.75;;;;;;;-2.14;100.00;100861.63;4973080;28;20035;-83
2022/11/20 05:28:28;;;;;;;53.35;21.05;;;;;;;-2.04;100.00;100864.00;4988652;28;20026;-83
2022/11/20 05:30:54;;;;;;;56.47;19.98;;;;;;;-1.99;100.00;100869.25;4998117;28;20426;-83
2022/11/20 05:33:19;;;;;;;46.85;20.40;;;;;;;-2.00;100.00;100863.91;4991432;28;20045;-83
2022/11/20 05:35:45;;;;;;;53.08;20.00;;;;;;;-2.05;100.00;100861.34;4989599;28;20026;-83
2022/11/20 05:38:11;;;;;;;47.97;19.63;;;;;;;-2.03;100.00;100859.53;4976263;28;20397;-83
2022/11/20 05:40:36;;;;;;;52.95;20.23;;;;;;;-2.20;100.00;100848.38;4992760;28;20052;-83
2022/11/20 05:43:02;;;;;;;56.60;22.27;;;;;;;-2.15;100.00;100855.34;4992955;28;20052;-84
2022/11/20 05:45:28;;;;;;;54.15;20.10;;;;;;;-2.12;100.00;100849.91;4991923;28;20031;-83
2022/11/20 05:47:53;;;;;;;56.80;22.52;;;;;;;-2.18;100.00;100862.59;5002245;28;20458;-83
2022/11/20 05:50:19;;;;;;;61.38;22.52;;;;;;;-2.22;100.00;100857.31;4988908;28;20026;-83
2022/11/20 05:52:44;;;;;;;52.53;19.83;;;;;;;-2.14;100.00;100864.31;5007398;28;20106;-83
2022/11/20 05:55:10;;;;;;;52.20;20.85;;;;;;;-2.16;100.00;100848.25;5025229;28;20038;-83
2022/11/20 05:57:35;;;;;;;57.50;21.55;;;;;;;-1.94;100.00;100863.75;4991501;28;20097;-83
2022/11/20 06:00:02;;;;;;;55.67;22.13;;;;;;;-1.98;100.00;100868.31;4975824;28;20130;-83
2022/11/20 06:02:28;;;;;;;49.75;21.48;;;;;;;-2.04;100.00;100869.34;5003688;28;20104;-83
2022/11/20 06:04:53;;;;;;;51.15;19.55;;;;;;;-1.87;100.00;100868.03;4972627;28;20031;-83
2022/11/20 06:07:19;;;;;;;53.88;21.23;;;;;;;-1.81;100.00;100866.97;4993303;28;20030;-83
2022/11/20 06:09:44;;;;;;;54.63;21.77;;;;;;;-1.88;100.00;100871.63;4989203;28;20043;-82
2022/11/20 06:12:10;;;;;;;54.75;22.05;;;;;;;-1.86;100.00;100867.09;4975743;28;20066;-82
2022/11/20 06:14:35;;;;;;;49.25;20.77;;;;;;;-1.87;100.00;100854.59;5003883;28;20042;-82
2022/11/20 06:17:01;;;;;;;57.60;20.23;;;;;;;-1.90;100.00;100879.72;5012367;28;20018;-83
2022/11/20 06:19:26;;;;;;;65.03;22.15;;;;;;;-1.89;100.00;100873.44;5012245;28;20048;-83
2022/11/20 06:21:51;;;;;;;57.42;21.45;;;;;;;-1.80;100.00;100885.72;5028605;28;20390;-83
2022/11/20 06:24:17;;;;;;;55.22;20.75;;;;;;;-1.73;100.00;100889.13;5010891;28;20060;-83
2022/11/20 06:26:43;;;;;;;62.38;22.27;;;;;;;-1.65;100.00;100881.72;5007631;28;20069;-82
2022/11/20 06:29:08;;;;;;;62.55;21.80;;;;;;;-1.53;100.00;100884.06;5011300;28;20086;-82
2022/11/20 06:31:37;;;;;;;62.72;23.10;;;;;;;-1.48;100.00;100878.56;5043940;28;20052;-82
2022/11/20 06:34:03;;;;;;;56.70;21.23;;;;;;;-1.44;100.00;100890.09;5011410;28;20095;-82
2022/11/20 06:36:29;;;;;;;55.65;20.90;;;;;;;-1.52;100.00;100883.13;5026794;28;20030;-83
2022/11/20 06:38:54;;;;;;;62.15;23.30;;;;;;;-1.38;100.00;100897.97;5010772;28;20058;-83
2022/11/20 06:41:21;;;;;;;61.10;23.55;;;;;;;-1.34;100.00;100892.47;5010975;28;20022;-83
2022/11/20 06:43:47;;;;;;;50.60;21.70;;;;;;;-1.34;100.00;100889.78;5011050;28;20022;-83
2022/11/20 06:46:14;;;;;;;57.20;22.52;;;;;;;-1.36;100.00;100883.59;5011258;28;20033;-83
2022/11/20 06:48:40;;;;;;;61.80;21.77;;;;;;;-1.27;100.00;100890.47;5027025;28;20029;-84
2022/11/20 06:51:07;;;;;;;56.30;22.30;;;;;;;-1.36;100.00;100891.63;5009831;28;20103;-82
2022/11/20 06:53:33;;;;;;;58.15;22.50;;;;;;;-1.36;100.00;100880.00;4995196;28;20037;-82
2022/11/20 06:55:59;;;;;;;55.28;22.75;;;;;;;-1.22;100.00;100890.34;5025946;28;20026;-83
2022/11/20 06:58:27;;;;;;;60.58;23.98;;;;;;;-1.24;100.00;100878.78;5023690;28;20026;-82
2022/11/20 07:00:53;;;;;;;57.88;23.35;;;;;;;-1.11;100.00;100885.53;4991762;28;20030;-82
2022/11/20 07:03:19;;;;;;;52.55;21.58;;;;;;;-1.15;100.00;100879.38;5027166;28;20056;-82
2022/11/20 07:05:45;;;;;;;66.60;22.45;;;;;;;-1.08;100.00;100890.81;4994189;28;20038;-83
2022/11/20 07:08:12;;;;;;;71.38;23.83;;;;;;;-1.07;100.00;100887.19;5026672;28;20030;-82
2022/11/20 07:10:38;;;;;;;56.15;22.85;;;;;;;-1.03;100.00;100869.16;5010299;28;20064;-82
2022/11/20 07:13:03;;;;;;;60.30;23.42;;;;;;;-1.04;100.00;100870.09;5026326;28;20052;-82
2022/11/20 07:15:29;;;;;;;62.95;23.52;;;;;;;-0.91;100.00;100873.28;4989460;28;20074;-83
2022/11/20 07:17:58;;;;;;;63.95;23.70;;;;;;;-0.98;100.00;100868.09;5022884;28;20042;-82
2022/11/20 07:20:24;;;;;;;62.40;22.52;;;;;;;-0.88;100.00;100867.81;5001499;28;20060;-83
2022/11/20 07:22:57;;;;;;;57.50;22.27;;;;;;;-0.94;100.00;100872.44;4974608;28;20054;-83
2022/11/20 07:25:23;;;;;;;57.70;21.02;;;;;;;-0.93;100.00;100871.53;4989856;28;20124;-83
2022/11/20 07:27:49;;;;;;;59.38;22.73;;;;;;;-0.97;100.00;100856.44;4986241;28;20027;-82
2022/11/20 07:30:15;;;;;;;64.05;23.17;;;;;;;-0.86;100.00;100868.66;4958517;28;20038;-84
2022/11/20 07:32:41;;;;;;;63.58;22.38;;;;;;;-0.88;100.00;100874.06;5002275;28;20042;-83
2022/11/20 07:35:09;;;;;;;66.85;23.65;;;;;;;-0.87;100.00;100881.22;4981649;28;20038;-84
2022/11/20 07:37:35;;;;;;;70.35;23.70;;;;;;;-0.89;100.00;100876.81;4977538;28;20102;-83
2022/11/20 07:40:01;;;;;;;61.65;23.08;;;;;;;-0.89;100.00;100874.13;4994152;28;20046;-84
2022/11/20 07:42:26;;;;;;;67.10;24.65;;;;;;;-0.77;100.00;100877.31;4990058;28;20053;-84
2022/11/20 07:44:51;;;;;;;65.32;23.80;;;;;;;-0.85;100.00;100859.63;4989307;28;20027;-83
2022/11/20 07:47:17;;;;;;;62.00;24.48;;;;;;;-0.66;100.00;100863.50;5005646;28;20041;-84
2022/11/20 07:49:42;;;;;;;63.88;23.17;;;;;;;-0.58;100.00;100871.31;4987885;28;20042;-85
2022/11/20 07:52:08;;;;;;;56.28;23.13;;;;;;;-0.56;100.00;100873.03;4968815;28;20034;-84
2022/11/20 07:54:33;;;;;;;61.08;23.65;;;;;;;-0.37;100.00;100869.72;4988678;28;20057;-84
2022/11/20 07:56:59;;;;;;;60.63;22.92;;;;;;;-0.40;100.00;100864.44;4987593;28;20126;-84
2022/11/20 07:59:24;;;;;;;70.13;24.73;;;;;;;-0.37;100.00;100861.66;4971845;28;20027;-84
2022/11/20 08:01:50;;;;;;;58.78;24.20;;;;;;;-0.38;100.00;100867.97;5006443;28;20053;-83
2022/11/20 08:04:16;;;;;;;67.35;24.75;;;;;;;-0.40;100.00;100873.38;5007117;28;20038;-83
2022/11/20 08:06:41;;;;;;;61.72;24.98;;;;;;;-0.35;100.00;100873.25;4991192;28;20058;-83
2022/11/20 08:09:07;;;;;;;58.47;24.90;;;;;;;-0.29;100.00;100878.44;5008420;28;20030;-85
2022/11/20 08:14:17;;;;;;;66.35;23.48;;;;;;;-0.28;100.00;100871.22;4995148;28;20050;-84
2022/11/20 08:16:45;;;;;;;70.93;25.40;;;;;;;-0.13;100.00;100868.03;4987958;28;20031;-83
2022/11/20 08:19:12;;;;;;;64.68;23.40;;;;;;;-0.10;100.00;100858.94;4988561;28;20058;-83
2022/11/20 08:21:37;;;;;;;64.25;25.55;;;;;;;0.01;100.00;100863.97;4989403;28;20055;-84
2022/11/20 08:24:03;;;;;;;64.35;23.08;;;;;;;0.02;100.00;100863.91;5000942;28;20042;-83
2022/11/20 08:26:29;;;;;;;61.47;24.05;;;;;;;0.06;100.00;100845.84;4968509;28;20031;-84
2022/11/20 08:28:58;;;;;;;65.82;25.08;;;;;;;0.15;100.00;100837.44;5000098;28;20126;-84
2022/11/20 08:31:25;;;;;;;64.38;24.25;;;;;;;0.20;100.00;100846.22;4968183;28;20166;-84
2022/11/20 08:33:51;;;;;;;59.22;23.30;;;;;;;0.30;100.00;100846.78;5003101;28;20033;-84
2022/11/20 08:36:17;;;;;;;65.60;25.52;;;;;;;0.37;100.00;100840.22;5005046;28;20042;-84
2022/11/20 08:38:48;;;;;;;71.70;24.73;;;;;;;0.35;100.00;100840.28;5004606;28;20034;-84
2022/11/20 08:41:26;;;;;;;66.40;25.95;;;;;;;0.38;100.00;100839.28;4988142;28;20027;-84
2022/11/20 08:43:57;;;;;;;62.50;24.40;;;;;;;0.63;100.00;100841.06;4990487;28;20043;-83
2022/11/20 08:46:30;;;;;;;55.08;22.75;;;;;;;0.60;100.00;100849.25;5005621;28;20034;-83
2022/11/20 08:48:56;;;;;;;69.18;25.00;;;;;;;0.53;100.00;100849.47;4990691;28;20038;-84
2022/11/20 08:51:21;;;;;;;70.18;25.52;;;;;;;0.44;100.00;100822.00;4987522;28;20041;-84
2022/11/20 08:53:48;;;;;;;74.90;26.00;;;;;;;0.64;100.00;100845.47;5021890;28;20042;-82
2022/11/20 08:56:14;;;;;;;65.80;26.30;;;;;;;0.64;100.00;100830.22;4987021;28;20403;-84
2022/11/20 08:58:40;;;;;;;66.70;24.95;;;;;;;0.70;100.00;100864.13;4989048;28;20046;-84
2022/11/20 09:01:06;;;;;;;72.88;28.10;;;;;;;0.76;100.00;100863.03;5005484;28;20110;-84
2022/11/20 09:03:32;;;;;;;78.13;28.92;;;;;;;0.78;100.00;100859.31;4976061;28;20023;-84
2022/11/20 09:06:04;;;;;;;77.82;28.25;;;;;;;0.73;100.00;100847.84;4988077;28;20038;-83
2022/11/20 09:08:30;;;;;;;70.47;28.70;;;;;;;0.91;100.00;100848.94;5005656;28;20038;-84
2022/11/20 09:10:57;;;;;;;76.95;29.10;;;;;;;0.94;100.00;100845.25;4989610;28;20034;-84
2022/11/20 09:13:23;;;;;;;84.07;28.55;;;;;;;1.14;100.00;100841.75;5009709;28;20037;-84
2022/11/20 09:15:57;;;;;;;87.55;27.95;;;;;;;1.07;100.00;100836.63;5028840;28;20059;-84
2022/11/20 09:18:23;;;;;;;78.43;27.65;;;;;;;1.00;100.00;100840.50;5012002;28;20063;-83
2022/11/20 09:20:49;;;;;;;91.82;29.05;;;;;;;1.01;100.00;100830.59;5008219;28;20029;-84
2022/11/20 09:23:15;;;;;;;83.22;29.15;;;;;;;1.09;100.00;100840.13;5026179;28;20033;-84
2022/11/20 09:25:41;;;;;;;73.65;27.65;;;;;;;1.15;100.00;100836.31;5027979;28;20075;-84
2022/11/20 09:28:07;;;;;;;75.40;27.77;;;;;;;1.17;100.00;100837.13;5010385;28;20029;-84
2022/11/20 09:30:32;;;;;;;83.75;28.08;;;;;;;1.38;100.00;100834.50;5006706;28;20367;-83
2022/11/20 09:32:58;;;;;;;96.85;31.50;;;;;;;1.42;100.00;100830.72;4991936;28;20037;-85
2022/11/20 09:35:24;;;;;;;91.32;30.23;;;;;;;1.39;100.00;100814.66;5022274;28;20407;-84
2022/11/20 09:37:50;;;;;;;78.15;27.83;;;;;;;1.51;100.00;100824.94;4993004;28;20129;-85
2022/11/20 09:40:25;;;;;;;94.57;30.90;;;;;;;1.52;100.00;100815.03;5025459;28;20072;-85
2022/11/20 09:43:21;;;;;;;87.88;28.95;;;;;;;1.51;100.00;100818.66;5008399;28;20096;-86
2022/11/20 09:45:52;;;;;;;95.07;31.95;;;;;;;1.56;100.00;100813.94;5030779;28;20125;-81
2022/11/20 09:48:17;;;;;;;85.30;30.25;;;;;;;1.55;100.00;100817.59;5009162;28;20043;-82
2022/11/20 09:50:49;;;;;;;89.55;31.90;;;;;;;1.53;100.00;100808.69;5023040;28;20417;-83
2022/11/20 09:53:36;;;;;;;94.72;32.50;;;;;;;1.55;100.00;100809.50;5013548;28;20033;-83
2022/11/20 09:56:04;;;;;;;85.90;30.33;;;;;;;1.56;100.00;100804.03;5031858;28;20037;-83
2022/11/20 09:58:36;;;;;;;98.85;32.85;;;;;;;1.55;100.00;100804.09;5007468;28;20438;-81
2022/11/20 10:01:25;;;;;;;96.32;33.78;;;;;;;1.58;100.00;100806.69;5040596;28;20029;-82
2022/11/20 10:04:00;;;;;;;111.07;34.13;;;;;;;1.68;100.00;100816.13;5021829;28;20457;-83
2022/11/20 10:06:31;;;;;;;99.07;34.17;;;;;;;1.63;100.00;100805.53;5023530;28;20037;-83
2022/11/20 10:09:12;;;;;;;97.95;31.90;;;;;;;1.69;100.00;100798.09;5010869;28;20017;-83
2022/11/20 10:11:55;;;;;;;97.45;33.55;;;;;;;1.70;100.00;100792.66;5007865;28;20204;-86
2022/11/20 10:14:45;;;;;;;110.13;31.90;;;;;;;1.72;100.00;100795.28;5010561;28;20045;-83
2022/11/20 10:17:24;;;;;;;119.70;35.60;;;;;;;1.84;100.00;100790.22;5024097;28;20033;-85
2022/11/20 10:20:20;;;;;;;128.35;35.30;;;;;;;1.91;100.00;100773.75;5023129;28;20038;-83
2022/11/20 10:23:10;;;;;;;124.80;35.15;;;;;;;1.96;100.00;100767.19;5023123;28;20097;-83
2022/11/20 10:25:44;;;;;;;132.05;34.85;;;;;;;1.95;100.00;100762.75;5005276;28;20037;-82
2022/11/20 10:28:28;;;;;;;133.20;33.65;;;;;;;2.15;100.00;100761.00;5006656;28;20505;-84
2022/11/20 10:31:04;;;;;;;132.90;35.15;;;;;;;2.06;100.00;100762.25;5005151;28;20038;-83
2022/11/20 10:33:35;;;;;;;139.57;36.50;;;;;;;2.14;100.00;100749.28;5012270;28;20041;-83
2022/11/20 10:36:36;;;;;;;121.55;33.58;;;;;;;2.18;100.00;100739.22;5040734;28;20037;-83
2022/11/20 10:39:21;;;;;;;142.48;36.22;;;;;;;2.28;100.00;100737.84;4981691;28;20114;-82
2022/11/20 10:41:51;;;;;;;139.77;34.78;;;;;;;2.32;100.00;100727.78;5019800;28;20042;-82
2022/11/20 10:47:14;;;;;;;146.30;36.05;;;;;;;2.44;100.00;100691.19;5036441;28;20474;-84
2022/11/20 10:49:42;;;;;;;143.48;37.65;;;;;;;2.44;100.00;100693.91;5023856;28;20025;-83
2022/11/20 10:52:13;;;;;;;165.98;39.05;;;;;;;2.47;100.00;100696.47;5023174;28;20500;-84
2022/11/20 10:55:01;;;;;;;162.05;39.45;;;;;;;2.57;100.00;100700.47;5042108;28;20103;-84
2022/11/20 10:57:30;;;;;;;147.18;36.22;;;;;;;2.57;100.00;100687.84;5006282;28;20025;-83
2022/11/20 11:00:03;;;;;;;136.13;38.42;;;;;;;2.57;100.00;100692.34;5024985;28;20037;-83
2022/11/20 11:02:38;;;;;;;159.02;39.45;;;;;;;2.54;100.00;100674.47;5007997;28;20052;-83
2022/11/20 11:05:22;;;;;;;140.50;35.70;;;;;;;2.69;100.00;100669.25;5023879;28;20069;-83
2022/11/20 11:07:54;;;;;;;153.35;37.45;;;;;;;2.78;100.00;100674.22;5006679;28;20033;-83
2022/11/20 11:10:36;;;;;;;139.77;35.70;;;;;;;2.74;100.00;100656.41;5006463;28;20037;-83
2022/11/20 11:13:02;;;;;;;144.90;34.63;;;;;;;2.74;100.00;100651.88;5006585;28;20052;-83
2022/11/20 11:15:39;;;;;;;143.80;37.60;;;;;;;2.87;100.00;100662.03;5007640;28;20049;-83